sensor_id;sensor_type;location;lat;lon;timestamp;P1;durP1;ratioP1;P2;durP2;ratioP2
56269;SDS011;42176;43.240;27.880;2023-05-29T00:00:41;10.80;;;7.40;;
56269;SDS011;42176;43.240;27.880;2023-05-29T00:03:07;12.57;;;7.95;;
56269;SDS011;42176;43.240;27.880;2023-05-29T00:05:34;9.15;;;6.55;;
56269;SDS011;42176;43.240;27.880;2023-05-29T00:08:00;10.57;;;6.93;;
56269;SDS011;42176;43.240;27.880;2023-05-29T00:10:25;12.32;;;6.65;;
56269;SDS011;42176;43.240;27.880;2023-05-29T00:12:51;12.07;;;7.43;;
56269;SDS011;42176;43.240;27.880;2023-05-29T00:15:17;13.60;;;6.88;;
56269;SDS011;42176;43.240;27.880;2023-05-29T00:17:42;11.02;;;6.68;;
56269;SDS011;42176;43.240;27.880;2023-05-29T00:20:08;11.18;;;7.47;;
56269;SDS011;42176;43.240;27.880;2023-05-29T00:22:35;11.70;;;7.85;;
56269;SDS011;42176;43.240;27.880;2023-05-29T00:25:04;12.57;;;7.82;;
56269;SDS011;42176;43.240;27.880;2023-05-29T00:27:30;14.38;;;7.95;;
56269;SDS011;42176;43.240;27.880;2023-05-29T00:29:57;14.07;;;8.80;;
56269;SDS011;42176;43.240;27.880;2023-05-29T00:32:23;15.20;;;8.50;;
56269;SDS011;42176;43.240;27.880;2023-05-29T00:34:49;22.83;;;9.57;;
56269;SDS011;42176;43.240;27.880;2023-05-29T00:37:15;14.52;;;9.63;;
56269;SDS011;42176;43.240;27.880;2023-05-29T00:39:40;17.00;;;9.50;;
56269;SDS011;42176;43.240;27.880;2023-05-29T00:42:06;16.98;;;9.90;;
56269;SDS011;42176;43.240;27.880;2023-05-29T00:44:31;13.15;;;9.73;;
56269;SDS011;42176;43.240;27.880;2023-05-29T00:46:57;15.95;;;9.60;;
56269;SDS011;42176;43.240;27.880;2023-05-29T00:49:23;17.58;;;10.95;;
56269;SDS011;42176;43.240;27.880;2023-05-29T00:51:50;18.55;;;10.60;;
56269;SDS011;42176;43.240;27.880;2023-05-29T00:54:20;16.60;;;10.40;;
56269;SDS011;42176;43.240;27.880;2023-05-29T00:56:48;17.52;;;11.05;;
56269;SDS011;42176;43.240;27.880;2023-05-29T01:01:39;15.70;;;10.10;;
56269;SDS011;42176;43.240;27.880;2023-05-29T01:04:06;17.58;;;10.18;;
56269;SDS011;42176;43.240;27.880;2023-05-29T01:06:32;21.70;;;10.90;;
56269;SDS011;42176;43.240;27.880;2023-05-29T01:08:58;17.73;;;10.80;;
56269;SDS011;42176;43.240;27.880;2023-05-29T01:13:58;20.50;;;11.68;;
56269;SDS011;42176;43.240;27.880;2023-05-29T01:16:35;19.25;;;11.68;;
56269;SDS011;42176;43.240;27.880;2023-05-29T01:25:21;19.33;;;10.55;;
56269;SDS011;42176;43.240;27.880;2023-05-29T01:27:54;28.50;;;12.05;;
56269;SDS011;42176;43.240;27.880;2023-05-29T01:30:21;23.20;;;12.70;;
56269;SDS011;42176;43.240;27.880;2023-05-29T01:32:49;23.08;;;12.20;;
56269;SDS011;42176;43.240;27.880;2023-05-29T01:35:15;24.73;;;11.15;;
56269;SDS011;42176;43.240;27.880;2023-05-29T01:37:41;26.73;;;14.05;;
56269;SDS011;42176;43.240;27.880;2023-05-29T01:40:07;20.30;;;12.20;;
56269;SDS011;42176;43.240;27.880;2023-05-29T01:42:33;29.00;;;12.57;;
56269;SDS011;42176;43.240;27.880;2023-05-29T01:44:58;26.65;;;13.82;;
56269;SDS011;42176;43.240;27.880;2023-05-29T01:47:25;28.25;;;14.15;;
56269;SDS011;42176;43.240;27.880;2023-05-29T01:49:51;26.30;;;13.48;;
56269;SDS011;42176;43.240;27.880;2023-05-29T01:52:17;23.40;;;14.20;;
56269;SDS011;42176;43.240;27.880;2023-05-29T01:54:43;30.60;;;15.52;;
56269;SDS011;42176;43.240;27.880;2023-05-29T01:57:09;29.90;;;14.43;;
56269;SDS011;42176;43.240;27.880;2023-05-29T01:59:35;29.67;;;13.48;;
56269;SDS011;42176;43.240;27.880;2023-05-29T02:02:08;26.38;;;14.60;;
56269;SDS011;42176;43.240;27.880;2023-05-29T02:04:34;24.63;;;13.98;;
56269;SDS011;42176;43.240;27.880;2023-05-29T02:07:00;26.02;;;15.82;;
56269;SDS011;42176;43.240;27.880;2023-05-29T02:09:25;24.50;;;14.85;;
56269;SDS011;42176;43.240;27.880;2023-05-29T02:11:51;28.75;;;16.17;;
56269;SDS011;42176;43.240;27.880;2023-05-29T02:14:17;23.02;;;14.93;;
56269;SDS011;42176;43.240;27.880;2023-05-29T02:16:42;25.35;;;15.23;;
56269;SDS011;42176;43.240;27.880;2023-05-29T02:19:09;26.70;;;14.25;;
56269;SDS011;42176;43.240;27.880;2023-05-29T02:21:37;22.88;;;14.68;;
56269;SDS011;42176;43.240;27.880;2023-05-29T02:24:03;20.15;;;13.80;;
56269;SDS011;42176;43.240;27.880;2023-05-29T02:26:29;20.98;;;13.60;;
56269;SDS011;42176;43.240;27.880;2023-05-29T02:28:54;23.35;;;14.02;;
56269;SDS011;42176;43.240;27.880;2023-05-29T02:31:20;26.13;;;14.73;;
56269;SDS011;42176;43.240;27.880;2023-05-29T02:33:45;22.02;;;14.02;;
56269;SDS011;42176;43.240;27.880;2023-05-29T02:36:11;18.35;;;13.05;;
56269;SDS011;42176;43.240;27.880;2023-05-29T02:38:37;21.33;;;12.43;;
56269;SDS011;42176;43.240;27.880;2023-05-29T02:41:02;23.60;;;12.43;;
56269;SDS011;42176;43.240;27.880;2023-05-29T02:43:28;23.33;;;12.73;;
56269;SDS011;42176;43.240;27.880;2023-05-29T02:45:53;25.98;;;13.15;;
56269;SDS011;42176;43.240;27.880;2023-05-29T02:48:19;19.33;;;12.15;;
56269;SDS011;42176;43.240;27.880;2023-05-29T02:50:44;22.73;;;13.40;;
56269;SDS011;42176;43.240;27.880;2023-05-29T02:53:10;17.48;;;11.55;;
56269;SDS011;42176;43.240;27.880;2023-05-29T02:55:35;21.42;;;12.93;;
56269;SDS011;42176;43.240;27.880;2023-05-29T02:58:01;20.25;;;12.48;;
56269;SDS011;42176;43.240;27.880;2023-05-29T03:00:26;16.40;;;11.48;;
56269;SDS011;42176;43.240;27.880;2023-05-29T03:02:53;17.88;;;11.77;;
56269;SDS011;42176;43.240;27.880;2023-05-29T03:05:20;21.38;;;11.57;;
56269;SDS011;42176;43.240;27.880;2023-05-29T03:07:45;18.25;;;11.60;;
56269;SDS011;42176;43.240;27.880;2023-05-29T03:10:10;20.50;;;12.10;;
56269;SDS011;42176;43.240;27.880;2023-05-29T03:12:37;15.57;;;9.98;;
56269;SDS011;42176;43.240;27.880;2023-05-29T03:15:04;13.23;;;9.73;;
56269;SDS011;42176;43.240;27.880;2023-05-29T03:17:30;21.67;;;10.45;;
56269;SDS011;42176;43.240;27.880;2023-05-29T03:19:56;19.38;;;11.38;;
56269;SDS011;42176;43.240;27.880;2023-05-29T03:22:22;17.98;;;11.68;;
56269;SDS011;42176;43.240;27.880;2023-05-29T03:24:47;20.63;;;11.07;;
56269;SDS011;42176;43.240;27.880;2023-05-29T03:27:13;20.42;;;11.18;;
56269;SDS011;42176;43.240;27.880;2023-05-29T03:29:39;20.15;;;11.27;;
56269;SDS011;42176;43.240;27.880;2023-05-29T03:32:04;16.10;;;11.30;;
56269;SDS011;42176;43.240;27.880;2023-05-29T03:34:30;24.88;;;10.77;;
56269;SDS011;42176;43.240;27.880;2023-05-29T03:36:56;17.70;;;10.90;;
56269;SDS011;42176;43.240;27.880;2023-05-29T03:39:22;16.35;;;10.95;;
56269;SDS011;42176;43.240;27.880;2023-05-29T03:41:47;20.08;;;11.73;;
56269;SDS011;42176;43.240;27.880;2023-05-29T03:44:13;21.88;;;11.13;;
56269;SDS011;42176;43.240;27.880;2023-05-29T03:46:38;23.13;;;11.10;;
56269;SDS011;42176;43.240;27.880;2023-05-29T03:49:03;16.83;;;9.98;;
56269;SDS011;42176;43.240;27.880;2023-05-29T03:51:29;18.45;;;11.00;;
56269;SDS011;42176;43.240;27.880;2023-05-29T03:53:55;18.70;;;10.07;;
56269;SDS011;42176;43.240;27.880;2023-05-29T03:56:21;17.70;;;9.13;;
56269;SDS011;42176;43.240;27.880;2023-05-29T03:58:46;18.42;;;10.65;;
56269;SDS011;42176;43.240;27.880;2023-05-29T04:01:12;20.25;;;10.68;;
56269;SDS011;42176;43.240;27.880;2023-05-29T04:03:37;18.83;;;11.32;;
56269;SDS011;42176;43.240;27.880;2023-05-29T04:06:03;18.20;;;10.23;;
56269;SDS011;42176;43.240;27.880;2023-05-29T04:08:28;18.23;;;9.07;;
56269;SDS011;42176;43.240;27.880;2023-05-29T04:10:54;18.58;;;9.90;;
56269;SDS011;42176;43.240;27.880;2023-05-29T04:13:20;14.85;;;9.48;;
56269;SDS011;42176;43.240;27.880;2023-05-29T04:15:46;14.65;;;9.18;;
56269;SDS011;42176;43.240;27.880;2023-05-29T04:18:11;25.42;;;11.48;;
56269;SDS011;42176;43.240;27.880;2023-05-29T04:20:37;22.05;;;11.02;;
56269;SDS011;42176;43.240;27.880;2023-05-29T04:23:02;15.70;;;9.55;;
56269;SDS011;42176;43.240;27.880;2023-05-29T04:25:28;22.95;;;11.35;;
56269;SDS011;42176;43.240;27.880;2023-05-29T04:27:53;24.10;;;11.35;;
56269;SDS011;42176;43.240;27.880;2023-05-29T04:30:19;23.77;;;12.60;;
56269;SDS011;42176;43.240;27.880;2023-05-29T04:32:44;18.40;;;10.23;;
56269;SDS011;42176;43.240;27.880;2023-05-29T04:35:11;23.10;;;11.52;;
56269;SDS011;42176;43.240;27.880;2023-05-29T04:37:38;22.05;;;10.10;;
56269;SDS011;42176;43.240;27.880;2023-05-29T04:40:04;16.35;;;9.25;;
56269;SDS011;42176;43.240;27.880;2023-05-29T04:42:37;19.67;;;10.73;;
56269;SDS011;42176;43.240;27.880;2023-05-29T04:45:05;22.10;;;10.52;;
56269;SDS011;42176;43.240;27.880;2023-05-29T04:47:31;26.58;;;12.52;;
56269;SDS011;42176;43.240;27.880;2023-05-29T04:50:00;18.30;;;11.68;;
56269;SDS011;42176;43.240;27.880;2023-05-29T04:52:26;23.13;;;12.52;;
56269;SDS011;42176;43.240;27.880;2023-05-29T04:54:52;21.65;;;12.02;;
56269;SDS011;42176;43.240;27.880;2023-05-29T04:57:17;22.83;;;13.05;;
56269;SDS011;42176;43.240;27.880;2023-05-29T04:59:43;25.02;;;12.45;;
56269;SDS011;42176;43.240;27.880;2023-05-29T05:02:08;19.38;;;11.35;;
56269;SDS011;42176;43.240;27.880;2023-05-29T05:04:34;21.77;;;12.10;;
56269;SDS011;42176;43.240;27.880;2023-05-29T05:06:59;18.35;;;11.55;;
56269;SDS011;42176;43.240;27.880;2023-05-29T05:09:25;16.88;;;10.95;;
56269;SDS011;42176;43.240;27.880;2023-05-29T05:11:51;21.00;;;9.90;;
56269;SDS011;42176;43.240;27.880;2023-05-29T05:14:17;16.15;;;10.68;;
56269;SDS011;42176;43.240;27.880;2023-05-29T05:16:42;15.60;;;10.23;;
56269;SDS011;42176;43.240;27.880;2023-05-29T05:19:07;17.70;;;11.55;;
56269;SDS011;42176;43.240;27.880;2023-05-29T05:21:33;16.88;;;10.70;;
56269;SDS011;42176;43.240;27.880;2023-05-29T05:23:59;15.25;;;9.95;;
56269;SDS011;42176;43.240;27.880;2023-05-29T05:26:25;13.98;;;9.63;;
56269;SDS011;42176;43.240;27.880;2023-05-29T05:28:53;18.55;;;9.70;;
56269;SDS011;42176;43.240;27.880;2023-05-29T05:31:19;13.85;;;9.73;;
56269;SDS011;42176;43.240;27.880;2023-05-29T05:33:44;15.70;;;9.73;;
56269;SDS011;42176;43.240;27.880;2023-05-29T05:36:09;13.50;;;9.35;;
56269;SDS011;42176;43.240;27.880;2023-05-29T05:38:35;15.25;;;8.73;;
56269;SDS011;42176;43.240;27.880;2023-05-29T05:41:01;16.73;;;9.40;;
56269;SDS011;42176;43.240;27.880;2023-05-29T05:43:35;22.70;;;10.07;;
56269;SDS011;42176;43.240;27.880;2023-05-29T05:46:00;13.52;;;6.78;;
56269;SDS011;42176;43.240;27.880;2023-05-29T05:48:26;14.90;;;8.88;;
56269;SDS011;42176;43.240;27.880;2023-05-29T05:50:51;20.27;;;9.43;;
56269;SDS011;42176;43.240;27.880;2023-05-29T05:53:17;15.95;;;9.00;;
56269;SDS011;42176;43.240;27.880;2023-05-29T05:55:43;13.57;;;9.32;;
56269;SDS011;42176;43.240;27.880;2023-05-29T05:58:08;15.82;;;8.90;;
56269;SDS011;42176;43.240;27.880;2023-05-29T06:00:34;14.60;;;9.73;;
56269;SDS011;42176;43.240;27.880;2023-05-29T06:02:59;19.63;;;8.93;;
56269;SDS011;42176;43.240;27.880;2023-05-29T06:05:27;14.15;;;8.45;;
56269;SDS011;42176;43.240;27.880;2023-05-29T06:07:53;16.45;;;10.20;;
56269;SDS011;42176;43.240;27.880;2023-05-29T06:10:18;15.32;;;8.95;;
56269;SDS011;42176;43.240;27.880;2023-05-29T06:12:44;14.05;;;9.52;;
56269;SDS011;42176;43.240;27.880;2023-05-29T06:15:10;12.13;;;8.13;;
56269;SDS011;42176;43.240;27.880;2023-05-29T06:17:35;15.70;;;8.65;;
56269;SDS011;42176;43.240;27.880;2023-05-29T06:20:01;13.40;;;9.18;;
56269;SDS011;42176;43.240;27.880;2023-05-29T06:22:26;14.70;;;8.40;;
56269;SDS011;42176;43.240;27.880;2023-05-29T06:24:51;13.77;;;8.38;;
56269;SDS011;42176;43.240;27.880;2023-05-29T06:27:17;34.40;;;9.75;;
56269;SDS011;42176;43.240;27.880;2023-05-29T06:29:43;8.40;;;6.05;;
56269;SDS011;42176;43.240;27.880;2023-05-29T06:32:09;9.32;;;5.35;;
56269;SDS011;42176;43.240;27.880;2023-05-29T06:34:34;9.60;;;4.82;;
56269;SDS011;42176;43.240;27.880;2023-05-29T06:37:00;10.18;;;4.30;;
56269;SDS011;42176;43.240;27.880;2023-05-29T06:39:26;8.32;;;5.05;;
56269;SDS011;42176;43.240;27.880;2023-05-29T06:41:51;10.32;;;5.78;;
56269;SDS011;42176;43.240;27.880;2023-05-29T06:44:16;9.63;;;6.68;;
56269;SDS011;42176;43.240;27.880;2023-05-29T06:46:42;0.00;;;0.00;;
56269;SDS011;42176;43.240;27.880;2023-05-29T06:49:07;0.17;;;0.17;;
56269;SDS011;42176;43.240;27.880;2023-05-29T06:51:33;0.10;;;0.10;;
56269;SDS011;42176;43.240;27.880;2023-05-29T06:53:58;0.20;;;0.15;;
56269;SDS011;42176;43.240;27.880;2023-05-29T06:56:24;0.00;;;0.00;;
56269;SDS011;42176;43.240;27.880;2023-05-29T06:58:50;0.95;;;0.47;;
56269;SDS011;42176;43.240;27.880;2023-05-29T07:01:16;0.00;;;0.00;;
56269;SDS011;42176;43.240;27.880;2023-05-29T07:03:42;0.00;;;0.00;;
56269;SDS011;42176;43.240;27.880;2023-05-29T07:06:07;0.00;;;0.00;;
56269;SDS011;42176;43.240;27.880;2023-05-29T07:08:33;0.22;;;0.22;;
56269;SDS011;42176;43.240;27.880;2023-05-29T07:10:58;0.13;;;0.13;;
56269;SDS011;42176;43.240;27.880;2023-05-29T07:13:24;0.30;;;0.30;;
56269;SDS011;42176;43.240;27.880;2023-05-29T07:15:50;0.43;;;0.43;;
56269;SDS011;42176;43.240;27.880;2023-05-29T07:18:16;0.00;;;0.00;;
56269;SDS011;42176;43.240;27.880;2023-05-29T07:20:41;0.10;;;0.10;;
56269;SDS011;42176;43.240;27.880;2023-05-29T07:23:07;0.00;;;0.00;;
56269;SDS011;42176;43.240;27.880;2023-05-29T07:25:32;0.55;;;0.30;;
56269;SDS011;42176;43.240;27.880;2023-05-29T07:27:58;0.00;;;0.00;;
56269;SDS011;42176;43.240;27.880;2023-05-29T07:30:23;0.00;;;0.00;;
56269;SDS011;42176;43.240;27.880;2023-05-29T07:32:49;0.00;;;0.00;;
56269;SDS011;42176;43.240;27.880;2023-05-29T07:35:14;0.00;;;0.00;;
56269;SDS011;42176;43.240;27.880;2023-05-29T07:37:40;0.00;;;0.00;;
56269;SDS011;42176;43.240;27.880;2023-05-29T07:40:06;0.00;;;0.00;;
56269;SDS011;42176;43.240;27.880;2023-05-29T07:42:32;0.00;;;0.00;;
56269;SDS011;42176;43.240;27.880;2023-05-29T07:44:58;0.75;;;0.55;;
56269;SDS011;42176;43.240;27.880;2023-05-29T07:47:24;0.00;;;0.00;;
56269;SDS011;42176;43.240;27.880;2023-05-29T07:49:50;0.00;;;0.00;;
56269;SDS011;42176;43.240;27.880;2023-05-29T07:52:17;0.43;;;0.43;;
56269;SDS011;42176;43.240;27.880;2023-05-29T07:54:43;0.00;;;0.00;;
56269;SDS011;42176;43.240;27.880;2023-05-29T07:57:09;0.00;;;0.00;;
56269;SDS011;42176;43.240;27.880;2023-05-29T07:59:35;0.00;;;0.00;;
56269;SDS011;42176;43.240;27.880;2023-05-29T08:02:01;0.00;;;0.00;;
56269;SDS011;42176;43.240;27.880;2023-05-29T08:04:28;0.00;;;0.00;;
56269;SDS011;42176;43.240;27.880;2023-05-29T08:06:53;0.00;;;0.00;;
56269;SDS011;42176;43.240;27.880;2023-05-29T08:09:20;0.00;;;0.00;;
56269;SDS011;42176;43.240;27.880;2023-05-29T08:11:45;0.00;;;0.00;;
56269;SDS011;42176;43.240;27.880;2023-05-29T08:14:11;3.30;;;2.17;;
56269;SDS011;42176;43.240;27.880;2023-05-29T08:16:37;0.00;;;0.00;;
56269;SDS011;42176;43.240;27.880;2023-05-29T08:19:03;0.00;;;0.00;;
56269;SDS011;42176;43.240;27.880;2023-05-29T08:21:29;2.08;;;1.55;;
56269;SDS011;42176;43.240;27.880;2023-05-29T08:23:56;0.00;;;0.00;;
56269;SDS011;42176;43.240;27.880;2023-05-29T08:26:22;0.00;;;0.00;;
56269;SDS011;42176;43.240;27.880;2023-05-29T08:28:48;0.10;;;0.10;;
56269;SDS011;42176;43.240;27.880;2023-05-29T08:31:13;0.00;;;0.00;;
56269;SDS011;42176;43.240;27.880;2023-05-29T08:33:38;0.00;;;0.00;;
56269;SDS011;42176;43.240;27.880;2023-05-29T08:36:05;0.00;;;0.00;;
56269;SDS011;42176;43.240;27.880;2023-05-29T08:38:30;0.00;;;0.00;;
56269;SDS011;42176;43.240;27.880;2023-05-29T08:40:56;0.00;;;0.00;;
56269;SDS011;42176;43.240;27.880;2023-05-29T08:43:25;0.00;;;0.00;;
56269;SDS011;42176;43.240;27.880;2023-05-29T08:46:01;0.00;;;0.00;;
56269;SDS011;42176;43.240;27.880;2023-05-29T08:48:28;0.00;;;0.00;;
56269;SDS011;42176;43.240;27.880;2023-05-29T08:50:56;0.00;;;0.00;;
56269;SDS011;42176;43.240;27.880;2023-05-29T08:53:23;0.00;;;0.00;;
56269;SDS011;42176;43.240;27.880;2023-05-29T08:55:50;0.00;;;0.00;;
56269;SDS011;42176;43.240;27.880;2023-05-29T08:58:17;0.00;;;0.00;;
56269;SDS011;42176;43.240;27.880;2023-05-29T09:00:46;0.03;;;0.03;;
56269;SDS011;42176;43.240;27.880;2023-05-29T09:03:12;0.00;;;0.00;;
56269;SDS011;42176;43.240;27.880;2023-05-29T09:05:41;0.00;;;0.00;;
56269;SDS011;42176;43.240;27.880;2023-05-29T09:08:07;0.00;;;0.00;;
56269;SDS011;42176;43.240;27.880;2023-05-29T09:10:33;0.00;;;0.00;;
56269;SDS011;42176;43.240;27.880;2023-05-29T09:12:59;0.93;;;0.93;;
56269;SDS011;42176;43.240;27.880;2023-05-29T09:15:25;0.00;;;0.00;;
56269;SDS011;42176;43.240;27.880;2023-05-29T09:17:55;0.10;;;0.10;;
56269;SDS011;42176;43.240;27.880;2023-05-29T09:20:25;0.05;;;0.05;;
56269;SDS011;42176;43.240;27.880;2023-05-29T09:25:22;0.00;;;0.00;;
56269;SDS011;42176;43.240;27.880;2023-05-29T09:27:55;0.00;;;0.00;;
56269;SDS011;42176;43.240;27.880;2023-05-29T09:30:42;0.00;;;0.00;;
56269;SDS011;42176;43.240;27.880;2023-05-29T09:33:10;1.08;;;0.35;;
56269;SDS011;42176;43.240;27.880;2023-05-29T09:35:38;0.00;;;0.00;;
56269;SDS011;42176;43.240;27.880;2023-05-29T09:38:05;0.00;;;0.00;;
56269;SDS011;42176;43.240;27.880;2023-05-29T09:40:32;0.00;;;0.00;;
56269;SDS011;42176;43.240;27.880;2023-05-29T09:43:13;0.00;;;0.00;;
56269;SDS011;42176;43.240;27.880;2023-05-29T09:45:42;0.25;;;0.25;;
56269;SDS011;42176;43.240;27.880;2023-05-29T09:50:38;0.00;;;0.00;;
56269;SDS011;42176;43.240;27.880;2023-05-29T09:53:12;0.00;;;0.00;;
56269;SDS011;42176;43.240;27.880;2023-05-29T09:55:48;0.00;;;0.00;;
56269;SDS011;42176;43.240;27.880;2023-05-29T09:58:16;0.05;;;0.05;;
56269;SDS011;42176;43.240;27.880;2023-05-29T10:00:43;0.00;;;0.00;;
56269;SDS011;42176;43.240;27.880;2023-05-29T10:03:12;0.00;;;0.00;;
56269;SDS011;42176;43.240;27.880;2023-05-29T10:05:38;0.17;;;0.17;;
56269;SDS011;42176;43.240;27.880;2023-05-29T10:08:05;0.10;;;0.10;;
56269;SDS011;42176;43.240;27.880;2023-05-29T10:10:34;0.10;;;0.10;;
56269;SDS011;42176;43.240;27.880;2023-05-29T10:13:03;0.30;;;0.30;;
56269;SDS011;42176;43.240;27.880;2023-05-29T10:15:31;1.02;;;0.90;;
56269;SDS011;42176;43.240;27.880;2023-05-29T10:18:13;0.55;;;0.55;;
56269;SDS011;42176;43.240;27.880;2023-05-29T10:20:51;0.00;;;0.00;;
56269;SDS011;42176;43.240;27.880;2023-05-29T10:23:22;0.13;;;0.13;;
56269;SDS011;42176;43.240;27.880;2023-05-29T10:25:52;1.17;;;0.57;;
56269;SDS011;42176;43.240;27.880;2023-05-29T10:28:21;0.00;;;0.00;;
56269;SDS011;42176;43.240;27.880;2023-05-29T10:30:53;0.00;;;0.00;;
56269;SDS011;42176;43.240;27.880;2023-05-29T10:38:30;0.00;;;0.00;;
56269;SDS011;42176;43.240;27.880;2023-05-29T10:41:13;0.10;;;0.10;;
56269;SDS011;42176;43.240;27.880;2023-05-29T10:49:24;0.00;;;0.00;;
56269;SDS011;42176;43.240;27.880;2023-05-29T10:51:50;0.00;;;0.00;;
56269;SDS011;42176;43.240;27.880;2023-05-29T10:54:16;0.00;;;0.00;;
56269;SDS011;42176;43.240;27.880;2023-05-29T10:56:53;0.00;;;0.00;;
56269;SDS011;42176;43.240;27.880;2023-05-29T10:59:21;0.00;;;0.00;;
56269;SDS011;42176;43.240;27.880;2023-05-29T11:01:50;0.00;;;0.00;;
56269;SDS011;42176;43.240;27.880;2023-05-29T11:06:43;1.55;;;0.45;;
56269;SDS011;42176;43.240;27.880;2023-05-29T11:12:16;0.00;;;0.00;;
56269;SDS011;42176;43.240;27.880;2023-05-29T11:14:53;0.00;;;0.00;;
56269;SDS011;42176;43.240;27.880;2023-05-29T11:17:29;0.00;;;0.00;;
56269;SDS011;42176;43.240;27.880;2023-05-29T11:20:20;0.10;;;0.10;;
56269;SDS011;42176;43.240;27.880;2023-05-29T11:25:25;0.00;;;0.00;;
56269;SDS011;42176;43.240;27.880;2023-05-29T11:27:51;0.00;;;0.00;;
56269;SDS011;42176;43.240;27.880;2023-05-29T11:30:20;0.00;;;0.00;;
56269;SDS011;42176;43.240;27.880;2023-05-29T11:32:46;0.00;;;0.00;;
56269;SDS011;42176;43.240;27.880;2023-05-29T11:35:13;0.00;;;0.00;;
56269;SDS011;42176;43.240;27.880;2023-05-29T11:37:39;0.00;;;0.00;;
56269;SDS011;42176;43.240;27.880;2023-05-29T11:40:11;0.00;;;0.00;;
56269;SDS011;42176;43.240;27.880;2023-05-29T11:42:44;0.03;;;0.03;;
56269;SDS011;42176;43.240;27.880;2023-05-29T11:45:18;0.10;;;0.10;;
56269;SDS011;42176;43.240;27.880;2023-05-29T11:50:21;0.00;;;0.00;;
56269;SDS011;42176;43.240;27.880;2023-05-29T11:52:51;0.00;;;0.00;;
56269;SDS011;42176;43.240;27.880;2023-05-29T11:55:19;0.00;;;0.00;;
56269;SDS011;42176;43.240;27.880;2023-05-29T11:57:49;0.00;;;0.00;;
56269;SDS011;42176;43.240;27.880;2023-05-29T12:00:16;0.00;;;0.00;;
56269;SDS011;42176;43.240;27.880;2023-05-29T12:02:44;0.00;;;0.00;;
56269;SDS011;42176;43.240;27.880;2023-05-29T12:05:12;0.00;;;0.00;;
56269;SDS011;42176;43.240;27.880;2023-05-29T12:07:46;0.00;;;0.00;;
56269;SDS011;42176;43.240;27.880;2023-05-29T12:10:14;0.00;;;0.00;;
56269;SDS011;42176;43.240;27.880;2023-05-29T12:12:41;0.00;;;0.00;;
56269;SDS011;42176;43.240;27.880;2023-05-29T12:15:08;0.00;;;0.00;;
56269;SDS011;42176;43.240;27.880;2023-05-29T12:17:34;0.00;;;0.00;;
56269;SDS011;42176;43.240;27.880;2023-05-29T12:20:00;0.00;;;0.00;;
56269;SDS011;42176;43.240;27.880;2023-05-29T12:22:38;0.10;;;0.10;;
56269;SDS011;42176;43.240;27.880;2023-05-29T12:25:16;0.47;;;0.47;;
56269;SDS011;42176;43.240;27.880;2023-05-29T12:27:44;0.00;;;0.00;;
56269;SDS011;42176;43.240;27.880;2023-05-29T12:30:29;0.00;;;0.00;;
56269;SDS011;42176;43.240;27.880;2023-05-29T12:32:56;0.00;;;0.00;;
56269;SDS011;42176;43.240;27.880;2023-05-29T12:35:26;0.00;;;0.00;;
56269;SDS011;42176;43.240;27.880;2023-05-29T12:37:56;0.00;;;0.00;;
56269;SDS011;42176;43.240;27.880;2023-05-29T12:43:05;0.00;;;0.00;;
56269;SDS011;42176;43.240;27.880;2023-05-29T12:45:34;0.00;;;0.00;;
56269;SDS011;42176;43.240;27.880;2023-05-29T12:48:00;0.00;;;0.00;;
56269;SDS011;42176;43.240;27.880;2023-05-29T12:50:48;0.00;;;0.00;;
56269;SDS011;42176;43.240;27.880;2023-05-29T12:53:14;0.00;;;0.00;;
56269;SDS011;42176;43.240;27.880;2023-05-29T12:55:41;0.00;;;0.00;;
56269;SDS011;42176;43.240;27.880;2023-05-29T12:58:14;0.00;;;0.00;;
56269;SDS011;42176;43.240;27.880;2023-05-29T13:00:41;0.00;;;0.00;;
56269;SDS011;42176;43.240;27.880;2023-05-29T13:03:08;0.00;;;0.00;;
56269;SDS011;42176;43.240;27.880;2023-05-29T13:05:35;0.00;;;0.00;;
56269;SDS011;42176;43.240;27.880;2023-05-29T13:08:01;0.00;;;0.00;;
56269;SDS011;42176;43.240;27.880;2023-05-29T13:10:27;0.00;;;0.00;;
56269;SDS011;42176;43.240;27.880;2023-05-29T13:12:53;0.00;;;0.00;;
56269;SDS011;42176;43.240;27.880;2023-05-29T13:15:20;0.10;;;0.10;;
56269;SDS011;42176;43.240;27.880;2023-05-29T13:17:47;0.00;;;0.00;;
56269;SDS011;42176;43.240;27.880;2023-05-29T13:20:13;0.00;;;0.00;;
56269;SDS011;42176;43.240;27.880;2023-05-29T13:22:39;0.00;;;0.00;;
56269;SDS011;42176;43.240;27.880;2023-05-29T13:25:06;0.00;;;0.00;;
56269;SDS011;42176;43.240;27.880;2023-05-29T13:27:34;0.00;;;0.00;;
56269;SDS011;42176;43.240;27.880;2023-05-29T13:30:02;0.30;;;0.30;;
56269;SDS011;42176;43.240;27.880;2023-05-29T13:32:28;0.00;;;0.00;;
56269;SDS011;42176;43.240;27.880;2023-05-29T13:34:53;0.00;;;0.00;;
56269;SDS011;42176;43.240;27.880;2023-05-29T13:37:20;0.00;;;0.00;;
56269;SDS011;42176;43.240;27.880;2023-05-29T13:39:46;0.00;;;0.00;;
56269;SDS011;42176;43.240;27.880;2023-05-29T13:42:11;0.00;;;0.00;;
56269;SDS011;42176;43.240;27.880;2023-05-29T13:44:37;0.00;;;0.00;;
56269;SDS011;42176;43.240;27.880;2023-05-29T13:47:03;0.08;;;0.08;;
56269;SDS011;42176;43.240;27.880;2023-05-29T13:49:29;0.00;;;0.00;;
56269;SDS011;42176;43.240;27.880;2023-05-29T13:51:55;0.10;;;0.10;;
56269;SDS011;42176;43.240;27.880;2023-05-29T13:54:20;0.00;;;0.00;;
56269;SDS011;42176;43.240;27.880;2023-05-29T13:56:47;0.00;;;0.00;;
56269;SDS011;42176;43.240;27.880;2023-05-29T13:59:12;0.00;;;0.00;;
56269;SDS011;42176;43.240;27.880;2023-05-29T14:01:38;0.00;;;0.00;;
56269;SDS011;42176;43.240;27.880;2023-05-29T14:04:03;0.00;;;0.00;;
56269;SDS011;42176;43.240;27.880;2023-05-29T14:06:28;0.00;;;0.00;;
56269;SDS011;42176;43.240;27.880;2023-05-29T14:08:54;7.45;;;4.75;;
56269;SDS011;42176;43.240;27.880;2023-05-29T14:11:21;8.95;;;4.90;;
56269;SDS011;42176;43.240;27.880;2023-05-29T14:13:46;9.27;;;4.35;;
56269;SDS011;42176;43.240;27.880;2023-05-29T14:16:11;6.05;;;4.78;;
56269;SDS011;42176;43.240;27.880;2023-05-29T14:18:39;8.85;;;4.40;;
56269;SDS011;42176;43.240;27.880;2023-05-29T14:21:04;6.18;;;4.68;;
56269;SDS011;42176;43.240;27.880;2023-05-29T14:23:30;8.40;;;4.32;;
56269;SDS011;42176;43.240;27.880;2023-05-29T14:25:55;4.65;;;4.10;;
56269;SDS011;42176;43.240;27.880;2023-05-29T14:28:21;11.93;;;4.55;;
56269;SDS011;42176;43.240;27.880;2023-05-29T14:30:46;7.07;;;4.18;;
56269;SDS011;42176;43.240;27.880;2023-05-29T14:33:11;6.10;;;4.03;;
56269;SDS011;42176;43.240;27.880;2023-05-29T14:35:37;9.13;;;4.72;;
56269;SDS011;42176;43.240;27.880;2023-05-29T14:38:02;9.55;;;4.07;;
56269;SDS011;42176;43.240;27.880;2023-05-29T14:40:28;5.65;;;4.47;;
56269;SDS011;42176;43.240;27.880;2023-05-29T14:42:56;6.13;;;4.03;;
56269;SDS011;42176;43.240;27.880;2023-05-29T14:45:21;4.00;;;3.15;;
56269;SDS011;42176;43.240;27.880;2023-05-29T14:47:46;5.38;;;3.75;;
56269;SDS011;42176;43.240;27.880;2023-05-29T14:50:12;4.15;;;3.53;;
56269;SDS011;42176;43.240;27.880;2023-05-29T14:52:40;4.78;;;4.20;;
56269;SDS011;42176;43.240;27.880;2023-05-29T14:55:05;5.57;;;4.53;;
56269;SDS011;42176;43.240;27.880;2023-05-29T14:57:32;8.60;;;4.20;;
56269;SDS011;42176;43.240;27.880;2023-05-29T14:59:59;5.75;;;4.28;;
56269;SDS011;42176;43.240;27.880;2023-05-29T15:02:25;9.13;;;4.38;;
56269;SDS011;42176;43.240;27.880;2023-05-29T15:04:50;5.22;;;4.05;;